Time,TemperatureF,DewpointF,PressureIn,WindDirection,WindDirectionDegrees,WindSpeedMPH,WindSpeedGustMPH,Humidity,HourlyPrecipIn,Conditions,Clouds,dailyrainin,SolarRadiationWatts/m^2,SoftwareType,DateUTC
2013-02-02 00:02:00,36.0,17.0,-100.00,West,266,8.0,27.0,46,0.00,,,0.10,0.000000,,2013-02-02 07:02:00,
2013-02-02 00:11:00,36.0,17.0,-100.00,West,266,8.0,27.0,46,0.00,,,0.10,0.000000,,2013-02-02 07:11:00,
2013-02-02 00:21:00,35.0,19.0,-100.00,WSW,253,11.0,17.0,52,0.00,,,0.10,0.000000,,2013-02-02 07:21:00,
2013-02-02 00:42:00,35.0,19.0,-100.00,WSW,253,11.0,17.0,52,0.00,,,0.10,0.000000,,2013-02-02 07:42:00,
2013-02-02 00:52:00,35.0,19.0,-100.00,WSW,253,11.0,17.0,52,0.00,,,0.10,0.000000,,2013-02-02 07:52:00,
2013-02-02 01:01:00,35.0,19.0,-100.00,WSW,253,11.0,17.0,52,0.00,,,0.10,0.000000,,2013-02-02 08:01:00,
2013-02-02 01:11:00,35.0,19.0,-100.00,WSW,253,11.0,17.0,52,0.00,,,0.10,0.000000,,2013-02-02 08:11:00,
2013-02-02 01:21:00,33.0,19.0,-100.00,West,279,8.0,17.0,55,0.00,,,0.10,0.000000,,2013-02-02 08:21:00,
2013-02-02 01:42:00,33.0,19.0,-100.00,West,279,8.0,17.0,55,0.00,,,0.10,0.000000,,2013-02-02 08:42:00,
2013-02-02 01:53:00,33.0,19.0,-100.00,West,279,8.0,17.0,55,0.00,,,0.10,0.000000,,2013-02-02 08:53:00,
2013-02-02 02:01:00,33.0,19.0,-100.00,West,279,8.0,17.0,55,0.00,,,0.10,0.000000,,2013-02-02 09:01:00,
2013-02-02 02:11:00,33.0,19.0,-100.00,West,279,8.0,17.0,55,0.00,,,0.10,0.000000,,2013-02-02 09:11:00,
2013-02-02 02:21:00,32.0,19.0,-100.00,West,280,12.0,19.0,57,0.00,,,0.10,0.000000,,2013-02-02 09:21:00,
2013-02-02 02:42:00,32.0,19.0,-100.00,West,280,12.0,19.0,57,0.00,,,0.10,0.000000,,2013-02-02 09:42:00,
2013-02-02 02:52:00,32.0,19.0,-100.00,West,280,12.0,19.0,57,0.00,,,0.10,0.000000,,2013-02-02 09:52:00,
2013-02-02 03:01:00,32.0,19.0,-100.00,West,280,12.0,19.0,57,0.00,,,0.10,0.000000,,2013-02-02 10:01:00,
2013-02-02 03:11:00,32.0,19.0,-100.00,West,280,12.0,19.0,57,0.00,,,0.10,0.000000,,2013-02-02 10:11:00,
2013-02-02 03:21:00,32.0,18.0,-100.00,WSW,253,14.0,21.0,55,0.00,,,0.10,0.000000,,2013-02-02 10:21:00,
2013-02-02 03:42:00,32.0,18.0,-100.00,WSW,253,14.0,21.0,55,0.00,,,0.10,0.000000,,2013-02-02 10:42:00,
2013-02-02 03:52:00,32.0,18.0,-100.00,WSW,253,14.0,21.0,55,0.00,,,0.10,0.000000,,2013-02-02 10:52:00,
2013-02-02 04:01:00,32.0,18.0,-100.00,WSW,253,14.0,21.0,55,0.00,,,0.10,0.000000,,2013-02-02 11:01:00,
2013-02-02 04:11:00,32.0,18.0,-100.00,WSW,253,14.0,21.0,55,0.00,,,0.10,0.000000,,2013-02-02 11:11:00,
2013-02-02 04:21:00,32.0,19.0,-100.00,WSW,257,13.0,19.0,59,0.00,,,-99.99,0.000000,,2013-02-02 11:21:00,
2013-02-02 04:42:00,32.0,19.0,-100.00,WSW,257,13.0,19.0,59,0.00,,,-99.99,0.000000,,2013-02-02 11:42:00,
2013-02-02 04:52:00,32.0,19.0,-100.00,WSW,257,13.0,19.0,59,0.00,,,-99.99,0.000000,,2013-02-02 11:52:00,
2013-02-02 05:01:00,32.0,19.0,-100.00,WSW,257,13.0,19.0,59,0.00,,,-99.99,0.000000,,2013-02-02 12:01:00,
2013-02-02 05:11:00,32.0,19.0,-100.00,WSW,257,13.0,19.0,59,0.00,,,-99.99,0.000000,,2013-02-02 12:11:00,
2013-02-02 05:21:00,32.0,19.0,-100.00,WSW,255,14.0,20.0,57,0.00,,,0.10,0.000000,,2013-02-02 12:21:00,
2013-02-02 05:42:00,32.0,19.0,-100.00,WSW,255,14.0,20.0,57,0.00,,,0.10,0.000000,,2013-02-02 12:42:00,
2013-02-02 05:52:00,32.0,19.0,-100.00,WSW,255,14.0,20.0,57,0.00,,,0.10,0.000000,,2013-02-02 12:52:00,
2013-02-02 06:02:00,32.0,19.0,-100.00,WSW,255,14.0,20.0,57,0.00,,,0.10,0.000000,,2013-02-02 13:02:00,
2013-02-02 06:11:00,32.0,19.0,-100.00,WSW,255,14.0,20.0,57,0.00,,,0.10,0.000000,,2013-02-02 13:11:00,
2013-02-02 06:21:00,29.0,18.0,-100.00,West,278,12.0,18.0,62,-99.99,,,0.10,0.000000,,2013-02-02 13:21:00,
2013-02-02 06:42:00,29.0,18.0,-100.00,West,278,12.0,18.0,62,-99.99,,,0.10,0.000000,,2013-02-02 13:42:00,
2013-02-02 06:52:00,29.0,18.0,-100.00,West,278,12.0,18.0,62,-99.99,,,0.10,0.000000,,2013-02-02 13:52:00,
2013-02-02 07:02:00,29.0,18.0,-100.00,West,278,12.0,18.0,62,-99.99,,,0.10,0.000000,,2013-02-02 14:02:00,
2013-02-02 07:11:00,29.0,18.0,-100.00,West,278,12.0,18.0,62,-99.99,,,0.10,0.000000,,2013-02-02 14:11:00,
2013-02-02 07:21:00,25.0,19.0,-100.00,WSW,251,17.0,21.0,76,0.00,,,0.10,0.000000,,2013-02-02 14:21:00,
2013-02-02 07:42:00,25.0,19.0,-100.00,WSW,251,17.0,21.0,76,0.00,,,0.10,0.000000,,2013-02-02 14:42:00,
2013-02-02 07:52:00,25.0,19.0,-100.00,WSW,251,17.0,21.0,76,0.00,,,0.10,0.000000,,2013-02-02 14:52:00,
2013-02-02 08:02:00,25.0,19.0,-100.00,WSW,251,17.0,21.0,76,0.00,,,0.10,0.000000,,2013-02-02 15:02:00,
2013-02-02 08:11:00,25.0,19.0,-100.00,WSW,251,17.0,21.0,76,0.00,,,0.10,0.000000,,2013-02-02 15:11:00,
2013-02-02 08:21:00,28.0,20.0,-100.00,SW,232,14.0,18.0,73,0.00,,,-99.99,35.000000,,2013-02-02 15:21:00,
2013-02-02 08:42:00,28.0,20.0,-100.00,SW,232,14.0,18.0,73,0.00,,,-99.99,35.000000,,2013-02-02 15:42:00,
2013-02-02 08:52:00,28.0,20.0,-100.00,SW,232,14.0,18.0,73,0.00,,,-99.99,35.000000,,2013-02-02 15:52:00,
2013-02-02 09:02:00,28.0,20.0,-100.00,SW,232,14.0,18.0,73,0.00,,,-99.99,35.000000,,2013-02-02 16:02:00,
2013-02-02 09:11:00,28.0,20.0,-100.00,SW,232,14.0,18.0,73,0.00,,,-99.99,35.000000,,2013-02-02 16:11:00,
2013-02-02 09:21:00,34.0,21.0,-100.00,WSW,253,13.0,20.0,58,0.00,,,0.10,171.000000,,2013-02-02 16:21:00,
2013-02-02 09:42:00,34.0,21.0,-100.00,WSW,253,13.0,20.0,58,0.00,,,0.10,171.000000,,2013-02-02 16:42:00,
2013-02-02 09:52:00,34.0,21.0,-100.00,WSW,253,13.0,20.0,58,0.00,,,0.10,171.000000,,2013-02-02 16:52:00,
2013-02-02 10:02:00,34.0,21.0,-100.00,WSW,253,13.0,20.0,58,0.00,,,0.10,171.000000,,2013-02-02 17:02:00,
2013-02-02 10:11:00,34.0,21.0,-100.00,WSW,253,13.0,20.0,58,0.00,,,0.10,171.000000,,2013-02-02 17:11:00,
2013-02-02 10:21:00,38.0,21.0,-100.00,WSW,256,12.0,21.0,50,0.00,,,0.10,292.000000,,2013-02-02 17:21:00,
2013-02-02 10:42:00,38.0,21.0,-100.00,WSW,256,12.0,21.0,50,0.00,,,0.10,292.000000,,2013-02-02 17:42:00,
2013-02-02 10:52:00,38.0,21.0,-100.00,WSW,256,12.0,21.0,50,0.00,,,0.10,292.000000,,2013-02-02 17:52:00,
2013-02-02 11:02:00,38.0,21.0,-100.00,WSW,256,12.0,21.0,50,0.00,,,0.10,292.000000,,2013-02-02 18:02:00,
2013-02-02 11:11:00,38.0,21.0,-100.00,WSW,256,12.0,21.0,50,0.00,,,0.10,292.000000,,2013-02-02 18:11:00,
2013-02-02 11:21:00,45.0,24.0,-100.00,South,173,4.0,19.0,44,0.00,,,0.03,382.000000,,2013-02-02 18:21:00,
2013-02-02 11:42:00,45.0,24.0,-100.00,South,173,4.0,19.0,44,0.00,,,0.03,382.000000,,2013-02-02 18:42:00,
2013-02-02 11:52:00,45.0,24.0,-100.00,South,173,4.0,19.0,44,0.00,,,0.03,382.000000,,2013-02-02 18:52:00,
2013-02-02 12:01:00,45.0,24.0,-100.00,South,173,4.0,19.0,44,0.00,,,0.03,382.000000,,2013-02-02 19:01:00,
2013-02-02 12:11:00,45.0,24.0,-100.00,South,173,4.0,19.0,44,0.00,,,0.03,382.000000,,2013-02-02 19:11:00,
2013-02-02 12:21:00,44.0,23.0,-100.00,WSW,255,9.0,16.0,44,0.00,,,0.00,429.000000,,2013-02-02 19:21:00,
2013-02-02 12:42:00,44.0,23.0,-100.00,WSW,255,9.0,16.0,44,0.00,,,0.00,429.000000,,2013-02-02 19:42:00,
2013-02-02 12:52:00,44.0,23.0,-100.00,WSW,255,9.0,16.0,44,0.00,,,0.00,429.000000,,2013-02-02 19:52:00,
2013-02-02 13:01:00,44.0,23.0,-100.00,WSW,255,9.0,16.0,44,0.00,,,0.00,429.000000,,2013-02-02 20:01:00,
2013-02-02 13:11:00,44.0,23.0,-100.00,WSW,255,9.0,16.0,44,0.00,,,0.00,429.000000,,2013-02-02 20:11:00,
2013-02-02 13:21:00,45.0,24.0,-100.00,WSW,251,14.0,21.0,43,0.00,,,0.00,431.000000,,2013-02-02 20:21:00,
2013-02-02 13:42:00,45.0,24.0,-100.00,WSW,251,14.0,21.0,43,0.00,,,0.00,431.000000,,2013-02-02 20:42:00,
2013-02-02 13:52:00,45.0,24.0,-100.00,WSW,251,14.0,21.0,43,0.00,,,0.00,431.000000,,2013-02-02 20:52:00,
2013-02-02 14:02:00,45.0,24.0,-100.00,WSW,251,14.0,21.0,43,0.00,,,0.00,431.000000,,2013-02-02 21:02:00,
2013-02-02 14:11:00,45.0,24.0,-100.00,WSW,251,14.0,21.0,43,0.00,,,0.00,431.000000,,2013-02-02 21:11:00,
2013-02-02 14:21:00,46.0,25.0,-100.00,West,259,12.0,18.0,43,0.00,,,0.00,387.000000,,2013-02-02 21:21:00,
2013-02-02 14:42:00,46.0,25.0,-100.00,West,259,12.0,18.0,43,0.00,,,0.00,387.000000,,2013-02-02 21:42:00,
2013-02-02 14:52:00,46.0,25.0,-100.00,West,259,12.0,18.0,43,0.00,,,0.00,387.000000,,2013-02-02 21:52:00,
2013-02-02 15:02:00,46.0,25.0,-100.00,West,259,12.0,18.0,43,0.00,,,0.00,387.000000,,2013-02-02 22:02:00,
2013-02-02 15:11:00,46.0,25.0,-100.00,West,259,12.0,18.0,43,0.00,,,0.00,387.000000,,2013-02-02 22:11:00,
2013-02-02 15:21:00,45.0,25.0,-100.00,SW,227,7.0,16.0,46,0.00,,,0.00,300.000000,,2013-02-02 22:21:00,
2013-02-02 15:42:00,45.0,25.0,-100.00,SW,227,7.0,16.0,46,0.00,,,0.00,300.000000,,2013-02-02 22:42:00,
2013-02-02 15:52:00,45.0,25.0,-100.00,SW,227,7.0,16.0,46,0.00,,,0.00,300.000000,,2013-02-02 22:52:00,
2013-02-02 16:01:00,45.0,25.0,-100.00,SW,227,7.0,16.0,46,0.00,,,0.00,300.000000,,2013-02-02 23:01:00,
2013-02-02 16:11:00,45.0,25.0,-100.00,SW,227,7.0,16.0,46,0.00,,,0.00,300.000000,,2013-02-02 23:11:00,
2013-02-02 16:21:00,45.0,23.0,-100.00,WSW,253,9.0,13.0,41,0.00,,,0.00,159.000000,,2013-02-02 23:21:00,
2013-02-02 16:42:00,45.0,23.0,-100.00,WSW,253,9.0,13.0,41,0.00,,,0.00,159.000000,,2013-02-02 23:42:00,
2013-02-02 16:52:00,45.0,23.0,-100.00,WSW,253,9.0,13.0,41,0.00,,,0.00,159.000000,,2013-02-02 23:52:00,
2013-02-02 17:01:00,45.0,23.0,-100.00,WSW,253,9.0,13.0,41,0.00,,,0.00,159.000000,,2013-02-03 00:01:00,
2013-02-02 17:11:00,45.0,23.0,-100.00,WSW,253,9.0,13.0,41,0.00,,,0.00,159.000000,,2013-02-03 00:11:00,
2013-02-02 17:21:00,41.0,20.0,-100.00,West,273,6.0,14.0,43,0.00,,,0.00,45.000000,,2013-02-03 00:21:00,
2013-02-02 17:42:00,41.0,20.0,-100.00,West,273,6.0,14.0,43,0.00,,,0.00,45.000000,,2013-02-03 00:42:00,
2013-02-02 17:52:00,41.0,20.0,-100.00,West,273,6.0,14.0,43,0.00,,,0.00,45.000000,,2013-02-03 00:52:00,
2013-02-02 18:02:00,41.0,20.0,-100.00,West,273,6.0,14.0,43,0.00,,,0.00,45.000000,,2013-02-03 01:02:00,
2013-02-02 18:11:00,41.0,20.0,-100.00,West,273,6.0,14.0,43,0.00,,,0.00,45.000000,,2013-02-03 01:11:00,
2013-02-02 18:21:00,38.0,21.0,-100.00,WNW,298,7.0,9.0,50,0.00,,,0.00,1.000000,,2013-02-03 01:21:00,
2013-02-02 18:42:00,38.0,21.0,-100.00,WNW,298,7.0,9.0,50,0.00,,,0.00,1.000000,,2013-02-03 01:42:00,
2013-02-02 18:52:00,38.0,21.0,-100.00,WNW,298,7.0,9.0,50,0.00,,,0.00,1.000000,,2013-02-03 01:52:00,
2013-02-02 19:01:00,38.0,21.0,-100.00,WNW,298,7.0,9.0,50,0.00,,,0.00,1.000000,,2013-02-03 02:01:00,
2013-02-02 19:11:00,38.0,21.0,-100.00,WNW,298,7.0,9.0,50,0.00,,,0.00,1.000000,,2013-02-03 02:11:00,
2013-02-02 19:21:00,37.0,25.0,-100.00,WSW,256,10.0,12.0,61,0.00,,,0.00,0.000000,,2013-02-03 02:21:00,
2013-02-02 19:42:00,37.0,25.0,-100.00,WSW,256,10.0,12.0,61,0.00,,,0.00,0.000000,,2013-02-03 02:42:00,
2013-02-02 19:52:00,37.0,25.0,-100.00,WSW,256,10.0,12.0,61,0.00,,,0.00,0.000000,,2013-02-03 02:52:00,
2013-02-02 20:02:00,37.0,25.0,-100.00,WSW,256,10.0,12.0,61,0.00,,,0.00,0.000000,,2013-02-03 03:02:00,
2013-02-02 20:11:00,37.0,25.0,-100.00,WSW,256,10.0,12.0,61,0.00,,,0.00,0.000000,,2013-02-03 03:11:00,
2013-02-02 20:21:00,32.0,23.0,-100.00,West,268,10.0,13.0,70,0.00,,,0.00,0.000000,,2013-02-03 03:21:00,
2013-02-02 20:42:00,32.0,23.0,-100.00,West,268,10.0,13.0,70,0.00,,,0.00,0.000000,,2013-02-03 03:42:00,
2013-02-02 20:52:00,32.0,23.0,-100.00,West,268,10.0,13.0,70,0.00,,,0.00,0.000000,,2013-02-03 03:52:00,
2013-02-02 21:01:00,32.0,23.0,-100.00,West,268,10.0,13.0,70,0.00,,,0.00,0.000000,,2013-02-03 04:01:00,
2013-02-02 21:11:00,32.0,23.0,-100.00,West,268,10.0,13.0,70,0.00,,,0.00,0.000000,,2013-02-03 04:11:00,
2013-02-02 21:21:00,31.0,21.0,-100.00,WSW,243,10.0,14.0,66,0.00,,,0.00,0.000000,,2013-02-03 04:21:00,
2013-02-02 21:42:00,31.0,21.0,-100.00,WSW,243,10.0,14.0,66,0.00,,,0.00,0.000000,,2013-02-03 04:42:00,
2013-02-02 21:52:00,31.0,21.0,-100.00,WSW,243,10.0,14.0,66,0.00,,,0.00,0.000000,,2013-02-03 04:52:00,
2013-02-02 22:03:00,31.0,21.0,-100.00,WSW,243,10.0,14.0,66,0.00,,,0.00,0.000000,,2013-02-03 05:03:00,
2013-02-02 22:11:00,31.0,21.0,-100.00,WSW,243,10.0,14.0,66,0.00,,,0.00,0.000000,,2013-02-03 05:11:00,
2013-02-02 22:21:00,32.0,20.0,-100.00,WSW,245,14.0,19.0,61,0.00,,,0.00,0.000000,,2013-02-03 05:21:00,
2013-02-02 22:42:00,32.0,20.0,-100.00,WSW,245,14.0,19.0,61,0.00,,,0.00,0.000000,,2013-02-03 05:42:00,
2013-02-02 22:52:00,32.0,20.0,-100.00,WSW,245,14.0,19.0,61,0.00,,,0.00,0.000000,,2013-02-03 05:52:00,
2013-02-02 23:02:00,32.0,20.0,-100.00,WSW,245,14.0,19.0,61,0.00,,,0.00,0.000000,,2013-02-03 06:02:00,
2013-02-02 23:11:00,32.0,20.0,-100.00,WSW,245,14.0,19.0,61,0.00,,,0.00,0.000000,,2013-02-03 06:11:00,
2013-02-02 23:21:00,33.0,19.0,-100.00,WSW,254,15.0,18.0,56,0.00,,,0.00,0.000000,,2013-02-03 06:21:00,
2013-02-02 23:42:00,33.0,19.0,-100.00,WSW,254,15.0,18.0,56,0.00,,,0.00,0.000000,,2013-02-03 06:42:00,
2013-02-02 23:52:00,33.0,19.0,-100.00,WSW,254,15.0,18.0,56,0.00,,,0.00,0.000000,,2013-02-03 06:52:00,